createdAt,value
2018-04-19T00:01:05.755Z,36.30
2018-04-19T00:03:33.193Z,36.20
2018-04-19T00:06:00.633Z,36.20
2018-04-19T00:08:28.856Z,36.10
2018-04-19T00:10:56.328Z,36.10
2018-04-19T00:13:23.753Z,36.20
2018-04-19T00:15:51.188Z,36.10
2018-04-19T00:18:18.625Z,36.10
2018-04-19T00:20:46.856Z,36.10
2018-04-19T00:23:14.312Z,36.10
2018-04-19T00:25:41.765Z,36.30
2018-04-19T00:28:09.226Z,36.30
2018-04-19T00:30:36.672Z,36.40
2018-04-19T00:33:04.108Z,36.30
2018-04-19T00:35:31.591Z,36.40
2018-04-19T00:37:59.040Z,36.60
2018-04-19T00:40:26.488Z,36.80
2018-04-19T00:42:53.958Z,37.10
2018-04-19T00:45:21.399Z,37.20
2018-04-19T00:47:48.857Z,37.20
2018-04-19T00:50:16.328Z,37.50
2018-04-19T00:52:55.428Z,37.50
2018-04-19T00:55:22.898Z,37.80
2018-04-19T00:57:50.351Z,37.80
2018-04-19T01:00:17.807Z,38.00
2018-04-19T01:02:45.267Z,38.00
2018-04-19T01:05:12.704Z,38.10
2018-04-19T01:07:40.180Z,38.20
2018-04-19T01:10:07.631Z,38.30
2018-04-19T01:12:35.087Z,38.40
2018-04-19T01:15:02.582Z,38.50
2018-04-19T01:17:30.028Z,38.40
2018-04-19T01:19:57.490Z,38.60
2018-04-19T01:22:24.944Z,38.60
2018-04-19T01:24:52.402Z,38.50
2018-04-19T01:27:19.864Z,38.50
2018-04-19T01:29:47.348Z,38.70
2018-04-19T01:32:14.800Z,38.60
2018-04-19T01:34:43.005Z,38.60
2018-04-19T01:37:10.476Z,38.60
2018-04-19T01:39:37.923Z,38.70
2018-04-19T01:42:05.373Z,38.70
2018-04-19T01:44:32.848Z,38.80
2018-04-19T01:47:00.294Z,38.70
2018-04-19T01:49:27.737Z,38.70
2018-04-19T01:51:55.201Z,38.80
2018-04-19T01:54:22.643Z,38.70
2018-04-19T01:56:50.083Z,38.80
2018-04-19T01:59:18.315Z,38.50
2018-04-19T02:01:45.755Z,38.50
2018-04-19T02:04:13.194Z,38.20
2018-04-19T02:06:40.643Z,38.00
2018-04-19T02:09:08.094Z,37.90
2018-04-19T02:11:35.557Z,37.80
2018-04-19T02:14:03.039Z,37.90
2018-04-19T02:16:30.507Z,38.00
2018-04-19T02:18:57.966Z,37.90
2018-04-19T02:21:25.414Z,37.80
2018-04-19T02:23:52.865Z,37.90
2018-04-19T02:26:20.328Z,38.20
2018-04-19T02:28:47.776Z,38.80
2018-04-19T02:31:15.274Z,39.60
2018-04-19T02:33:42.707Z,39.70
2018-04-19T02:36:10.945Z,40.20
2018-04-19T02:38:38.369Z,40.00
2018-04-19T02:41:05.845Z,40.00
2018-04-19T02:43:33.301Z,40.30
2018-04-19T02:46:00.725Z,40.90
2018-04-19T02:48:28.945Z,41.10
2018-04-19T02:50:56.411Z,40.90
2018-04-19T02:53:23.871Z,40.90
2018-04-19T02:55:51.333Z,40.70
2018-04-19T02:58:18.809Z,40.50
2018-04-19T03:00:47.018Z,41.90
2018-04-19T03:03:15.284Z,41.40
2018-04-19T03:05:42.761Z,41.80
2018-04-19T03:08:10.220Z,42.00
2018-04-19T03:10:37.690Z,42.10
2018-04-19T03:13:05.175Z,42.60
2018-04-19T03:15:32.626Z,43.30
2018-04-19T03:18:00.072Z,43.30
2018-04-19T03:20:27.560Z,43.70
2018-04-19T03:22:55.763Z,44.10
2018-04-19T03:25:23.205Z,44.20
2018-04-19T03:27:50.673Z,44.40
2018-04-19T03:30:18.117Z,44.70
2018-04-19T03:32:45.569Z,44.80
2018-04-19T03:35:13.029Z,45.50
2018-04-19T03:37:40.464Z,45.90
2018-04-19T03:40:08.700Z,46.00
2018-04-19T03:42:36.147Z,46.00
2018-04-19T03:45:03.581Z,46.30
2018-04-19T03:47:31.063Z,46.50
2018-04-19T03:49:58.510Z,46.90
2018-04-19T03:52:25.955Z,47.20
2018-04-19T03:54:53.417Z,47.50
2018-04-19T03:57:20.865Z,47.50
2018-04-19T03:59:48.321Z,47.60
2018-04-19T04:02:15.790Z,47.80
2018-04-19T04:04:43.229Z,48.10
2018-04-19T04:07:10.702Z,48.40
2018-04-19T04:09:38.189Z,48.30
2018-04-19T04:12:05.633Z,48.40
2018-04-19T04:14:33.716Z,48.30
2018-04-19T04:17:13.666Z,49.20
2018-04-19T04:19:53.838Z,49.20
2018-04-19T04:22:33.949Z,49.10
2018-04-19T04:25:01.413Z,49.10
2018-04-19T04:27:28.848Z,49.20
2018-04-19T04:29:56.300Z,49.30
2018-04-19T04:32:23.787Z,49.30
2018-04-19T04:34:53.140Z,49.60
2018-04-19T04:37:24.387Z,49.80
2018-04-19T04:39:51.832Z,49.80
2018-04-19T04:42:19.282Z,49.90
2018-04-19T04:44:46.737Z,50.10
2018-04-19T04:47:14.193Z,50.40
2018-04-19T04:49:41.641Z,50.40
2018-04-19T04:52:09.117Z,50.40
2018-04-19T04:54:36.550Z,50.60
2018-04-19T04:57:03.988Z,50.80
2018-04-19T04:59:32.219Z,51.10
2018-04-19T05:01:59.676Z,51.10
2018-04-19T05:04:27.125Z,51.60
2018-04-19T05:06:54.565Z,51.70
2018-04-19T05:09:22.026Z,52.00
2018-04-19T05:11:49.464Z,52.20
2018-04-19T05:14:16.909Z,52.50
2018-04-19T05:16:44.381Z,52.60
2018-04-19T05:19:11.823Z,53.20
2018-04-19T05:21:39.309Z,53.10
2018-04-19T05:24:06.805Z,53.00
2018-04-19T05:26:34.244Z,53.30
2018-04-19T05:29:02.074Z,53.40
2018-04-19T05:31:29.530Z,53.50
2018-04-19T05:33:56.977Z,53.60
2018-04-19T05:36:25.233Z,53.70
2018-04-19T05:38:53.468Z,54.20
2018-04-19T05:41:20.920Z,54.20
2018-04-19T05:43:48.365Z,54.40
2018-04-19T05:46:15.822Z,54.70
2018-04-19T05:48:43.329Z,55.00
2018-04-19T05:51:11.536Z,55.70
2018-04-19T05:53:38.980Z,55.70
2018-04-19T05:56:06.448Z,55.80
2018-04-19T05:58:33.901Z,56.10
2018-04-19T06:01:01.343Z,56.60
2018-04-19T06:03:28.812Z,57.00
2018-04-19T06:05:56.261Z,57.50
2018-04-19T06:08:23.691Z,57.80
2018-04-19T06:10:52.130Z,58.20
2018-04-19T06:13:19.591Z,58.10
2018-04-19T06:15:47.026Z,58.40
2018-04-19T06:18:14.488Z,58.50
2018-04-19T06:20:41.924Z,58.80
2018-04-19T06:23:09.379Z,58.80
2018-04-19T06:25:36.845Z,59.00
2018-04-19T06:28:04.301Z,59.20
2018-04-19T06:30:31.756Z,59.50
2018-04-19T06:32:59.226Z,59.90
2018-04-19T06:35:26.680Z,59.90
2018-04-19T06:37:54.145Z,60.00
2018-04-19T06:40:21.586Z,59.80
2018-04-19T06:42:49.036Z,59.50
2018-04-19T06:45:16.508Z,59.50
2018-04-19T06:47:44.710Z,59.50
2018-04-19T06:50:12.920Z,59.10
2018-04-19T06:52:40.979Z,59.10
2018-04-19T06:55:08.413Z,58.70
2018-04-19T06:57:36.629Z,58.60
2018-04-19T07:00:04.115Z,58.50
2018-04-19T07:02:31.566Z,57.80
2018-04-19T07:04:59.016Z,57.30
2018-04-19T07:07:26.482Z,56.60
2018-04-19T07:09:53.930Z,55.80
2018-04-19T07:12:21.377Z,55.60
2018-04-19T07:14:48.845Z,55.60
2018-04-19T07:17:16.287Z,54.90
2018-04-19T07:19:43.780Z,54.20
2018-04-19T07:22:12.001Z,54.80
2018-04-19T07:24:39.457Z,54.80
2018-04-19T07:27:06.932Z,55.00
2018-04-19T07:29:34.377Z,55.10
2018-04-19T07:32:01.833Z,55.20
2018-04-19T07:34:29.301Z,55.50
2018-04-19T07:36:56.746Z,55.20
2018-04-19T07:39:24.193Z,54.60
2018-04-19T07:41:51.662Z,53.60
2018-04-19T07:44:19.869Z,53.70
2018-04-19T07:46:47.340Z,53.60
2018-04-19T07:49:15.557Z,53.70
2018-04-19T07:51:43.005Z,53.70
2018-04-19T07:54:10.470Z,51.50
2018-04-19T07:56:37.923Z,50.80
2018-04-19T07:59:05.375Z,51.20
2018-04-19T08:01:32.840Z,51.10
2018-04-19T08:04:00.284Z,51.50
2018-04-19T08:06:27.759Z,51.30
2018-04-19T08:08:55.222Z,50.70
2018-04-19T08:11:22.732Z,50.20
2018-04-19T08:13:50.148Z,49.70
2018-04-19T08:16:17.596Z,49.30
2018-04-19T08:18:46.052Z,47.90
2018-04-19T08:21:13.517Z,47.90
2018-04-19T08:23:40.972Z,47.20
2018-04-19T08:26:08.420Z,48.30
2018-04-19T08:28:35.884Z,47.00
2018-04-19T08:31:03.325Z,45.90
2018-04-19T08:33:30.817Z,45.20
2018-04-19T08:35:58.264Z,43.80
2018-04-19T08:38:25.711Z,43.60
2018-04-19T08:40:53.195Z,42.70
2018-04-19T08:43:20.644Z,41.60
2018-04-19T08:45:48.101Z,44.40
2018-04-19T08:48:15.546Z,42.70
2018-04-19T08:50:42.998Z,43.40
2018-04-19T08:53:10.457Z,44.70
2018-04-19T08:55:37.925Z,45.10
2018-04-19T08:58:05.380Z,46.30
2018-04-19T09:00:32.820Z,46.70
2018-04-19T09:03:00.297Z,45.40
2018-04-19T09:05:28.516Z,44.90
2018-04-19T09:07:55.989Z,44.90
2018-04-19T09:10:24.186Z,43.60
2018-04-19T09:12:51.635Z,43.70
2018-04-19T09:15:19.069Z,45.10
2018-04-19T09:17:46.527Z,44.70
2018-04-19T09:20:13.975Z,44.90
2018-04-19T09:22:41.422Z,44.30
2018-04-19T09:25:08.899Z,44.30
2018-04-19T09:27:36.352Z,45.00
2018-04-19T09:30:04.500Z,43.70
2018-04-19T09:32:31.990Z,45.10
2018-04-19T09:34:59.465Z,44.70
2018-04-19T09:37:26.921Z,44.60
2018-04-19T09:39:54.383Z,44.10
2018-04-19T09:42:21.820Z,44.00
2018-04-19T09:44:49.256Z,44.00
2018-04-19T09:47:17.487Z,43.70
2018-04-19T09:49:44.935Z,43.70
2018-04-19T09:52:13.158Z,42.90
2018-04-19T09:54:40.638Z,42.90
2018-04-19T09:57:08.084Z,42.90
2018-04-19T09:59:35.529Z,40.50
2018-04-19T10:02:03.772Z,40.00
2018-04-19T10:04:33.667Z,36.60
2018-04-19T10:07:01.884Z,33.30
2018-04-19T10:09:29.345Z,33.30
2018-04-19T10:11:56.797Z,31.90
2018-04-19T10:14:24.245Z,32.40
2018-04-19T10:16:51.708Z,32.90
2018-04-19T10:19:19.150Z,32.70
2018-04-19T10:21:46.592Z,33.20
2018-04-19T10:24:14.059Z,32.70
2018-04-19T10:26:41.531Z,32.00
2018-04-19T10:29:08.974Z,32.70
2018-04-19T10:31:36.423Z,31.20
2018-04-19T10:34:03.885Z,32.00
2018-04-19T10:36:31.330Z,33.20
2018-04-19T10:38:58.770Z,37.10
2018-04-19T10:41:26.238Z,38.70
2018-04-19T10:44:00.695Z,39.90
2018-04-19T10:46:29.051Z,38.50
2018-04-19T10:48:56.500Z,39.20
2018-04-19T10:51:23.939Z,38.90
2018-04-19T10:53:51.417Z,38.40
2018-04-19T10:56:18.853Z,38.30
2018-04-19T10:58:46.292Z,39.10
2018-04-19T11:01:14.532Z,37.20
2018-04-19T11:03:42.604Z,37.20
2018-04-19T11:06:10.054Z,38.70
2018-04-19T11:08:37.557Z,37.30
2018-04-19T11:11:04.960Z,36.50
2018-04-19T11:13:32.419Z,36.20
2018-04-19T11:15:59.915Z,37.80
2018-04-19T11:18:27.322Z,39.20
2018-04-19T11:20:54.774Z,38.70
2018-04-19T11:23:22.242Z,37.80
2018-04-19T11:25:49.696Z,37.20
2018-04-19T11:28:17.155Z,37.90
2018-04-19T11:30:44.613Z,37.40
2018-04-19T11:33:12.076Z,36.90
2018-04-19T11:35:39.517Z,36.20
2018-04-19T11:38:07.917Z,36.60
2018-04-19T11:40:35.385Z,36.70
2018-04-19T11:43:03.615Z,35.80
2018-04-19T11:45:31.064Z,35.70
2018-04-19T11:47:58.572Z,35.20
2018-04-19T11:50:26.907Z,35.10
2018-04-19T11:52:54.362Z,35.10
2018-04-19T11:55:21.844Z,34.50
2018-04-19T11:57:49.292Z,34.30
2018-04-19T12:00:16.737Z,33.60
2018-04-19T12:02:44.207Z,33.00
2018-04-19T12:05:11.700Z,35.20
2018-04-19T12:07:39.159Z,33.70
2018-04-19T12:10:07.368Z,33.70
2018-04-19T12:12:34.820Z,33.60
2018-04-19T12:15:02.274Z,33.20
2018-04-19T12:17:29.728Z,32.50
2018-04-19T12:19:57.181Z,31.50
2018-04-19T12:22:24.628Z,29.50
2018-04-19T12:24:52.102Z,28.60
2018-04-19T12:27:19.542Z,28.10
2018-04-19T12:29:46.994Z,27.80
2018-04-19T12:32:14.470Z,28.10
2018-04-19T12:34:41.908Z,29.30
2018-04-19T12:37:09.354Z,29.20
2018-04-19T12:39:36.805Z,29.90
2018-04-19T12:42:04.278Z,29.50
2018-04-19T12:44:31.729Z,28.60
2018-04-19T12:46:59.460Z,29.10
2018-04-19T12:49:27.701Z,30.00
2018-04-19T12:51:55.153Z,30.00
2018-04-19T12:54:22.614Z,30.60
2018-04-19T12:56:50.081Z,31.60
2018-04-19T12:59:17.518Z,32.00
2018-04-19T13:01:44.996Z,30.50
2018-04-19T13:04:12.461Z,29.50
2018-04-19T13:06:40.686Z,31.00
2018-04-19T13:09:08.137Z,31.00
2018-04-19T13:11:35.621Z,30.10
2018-04-19T13:14:03.055Z,29.70
2018-04-19T13:16:30.495Z,30.00
2018-04-19T13:18:57.968Z,29.70
2018-04-19T13:21:25.419Z,30.00
2018-04-19T13:23:52.869Z,29.70
2018-04-19T13:26:20.326Z,29.80
2018-04-19T13:28:47.767Z,29.10
2018-04-19T13:31:15.205Z,28.90
2018-04-19T13:33:42.672Z,27.90
2018-04-19T13:36:10.139Z,27.60
2018-04-19T13:38:37.578Z,28.10
2018-04-19T13:41:05.025Z,28.50
2018-04-19T13:43:33.246Z,28.90
2018-04-19T13:46:00.736Z,28.90
2018-04-19T13:48:28.123Z,29.20
2018-04-19T13:50:55.593Z,28.60
2018-04-19T13:53:23.032Z,28.50
2018-04-19T13:55:50.502Z,28.10
2018-04-19T13:58:17.940Z,28.00
2018-04-19T14:00:45.386Z,27.90
2018-04-19T14:03:13.610Z,27.20
2018-04-19T14:05:41.054Z,27.20
2018-04-19T14:08:08.487Z,27.10
2018-04-19T14:10:35.950Z,27.10
2018-04-19T14:13:03.395Z,26.80
2018-04-19T14:15:30.836Z,26.40
2018-04-19T14:17:59.072Z,26.70
2018-04-19T14:20:26.508Z,26.60
2018-04-19T14:22:53.952Z,26.60
2018-04-19T14:25:21.435Z,27.00
2018-04-19T14:27:48.861Z,27.40
2018-04-19T14:30:16.299Z,27.70
2018-04-19T14:32:43.771Z,27.60
2018-04-19T14:35:11.223Z,27.40
2018-04-19T14:37:38.684Z,27.30
2018-04-19T14:40:06.124Z,26.40
2018-04-19T14:42:33.568Z,26.60
2018-04-19T14:45:01.058Z,27.20
2018-04-19T14:47:28.501Z,27.70
2018-04-19T14:49:55.941Z,27.80
2018-04-19T14:52:23.417Z,27.80
2018-04-19T14:54:50.860Z,28.00
2018-04-19T14:57:18.300Z,25.50
2018-04-19T14:59:46.526Z,21.90
2018-04-19T15:02:14.736Z,20.30
2018-04-19T15:04:42.965Z,19.30
2018-04-19T15:07:10.427Z,19.20
2018-04-19T15:09:37.863Z,18.20
2018-04-19T15:12:05.326Z,17.50
2018-04-19T15:14:32.781Z,17.30
2018-04-19T15:17:00.309Z,16.70
2018-04-19T15:19:27.777Z,16.10
2018-04-19T15:21:55.238Z,16.20
2018-04-19T15:24:22.707Z,16.00
2018-04-19T15:26:50.151Z,15.60
2018-04-19T15:29:17.620Z,15.10
2018-04-19T15:31:45.136Z,15.20
2018-04-19T15:34:12.540Z,15.30
2018-04-19T15:36:40.024Z,15.00
2018-04-19T15:39:08.269Z,15.20
2018-04-19T15:41:35.798Z,14.60
2018-04-19T15:44:03.198Z,14.50
2018-04-19T15:46:30.649Z,14.50
2018-04-19T15:48:58.115Z,14.60
2018-04-19T15:51:25.561Z,14.90
2018-04-19T15:53:53.008Z,14.80
2018-04-19T15:56:20.478Z,14.80
2018-04-19T15:58:47.925Z,14.70
2018-04-19T16:01:15.373Z,14.70
2018-04-19T16:03:42.844Z,14.80
2018-04-19T16:06:10.282Z,14.60
2018-04-19T16:08:37.716Z,14.80
2018-04-19T16:11:05.189Z,14.60
2018-04-19T16:13:32.632Z,14.70
2018-04-19T16:16:00.101Z,15.40
2018-04-19T16:18:27.540Z,14.70
2018-04-19T16:20:54.981Z,14.80
2018-04-19T16:23:22.456Z,15.10
2018-04-19T16:25:49.892Z,15.50
2018-04-19T16:28:17.395Z,15.20
2018-04-19T16:30:44.816Z,15.20
2018-04-19T16:33:12.251Z,15.30
2018-04-19T16:35:39.688Z,15.30
2018-04-19T16:38:07.933Z,15.50
2018-04-19T16:40:35.378Z,15.50
2018-04-19T16:43:02.824Z,15.90
2018-04-19T16:45:30.313Z,16.70
2018-04-19T16:47:57.748Z,17.60
2018-04-19T16:50:25.188Z,18.40
2018-04-19T16:52:52.650Z,19.10
2018-04-19T16:55:20.093Z,19.90
2018-04-19T16:57:47.544Z,21.00
2018-04-19T17:00:15.000Z,22.00
2018-04-19T17:02:42.461Z,22.90
2018-04-19T17:05:09.909Z,23.70
2018-04-19T17:07:37.359Z,24.30
2018-04-19T17:10:04.819Z,25.00
2018-04-19T17:12:32.282Z,25.70
2018-04-19T17:14:59.725Z,26.20
2018-04-19T17:17:27.189Z,26.40
2018-04-19T17:19:54.628Z,27.20
2018-04-19T17:22:22.072Z,27.10
2018-04-19T17:24:49.557Z,27.50
2018-04-19T17:27:17.006Z,27.70
2018-04-19T17:29:44.440Z,28.00
2018-04-19T17:32:11.933Z,28.10
2018-04-19T17:34:39.365Z,28.20
2018-04-19T17:37:06.810Z,29.10
2018-04-19T17:39:34.281Z,29.20
2018-04-19T17:42:01.712Z,28.90
2018-04-19T17:44:29.929Z,29.60
2018-04-19T17:46:57.393Z,29.50
2018-04-19T17:49:24.857Z,29.80
2018-04-19T17:51:52.292Z,30.70
2018-04-19T17:54:19.764Z,30.40
2018-04-19T17:56:47.200Z,30.60
2018-04-19T17:59:14.655Z,30.90
2018-04-19T18:01:42.126Z,31.30
2018-04-19T18:04:09.575Z,31.50
2018-04-19T18:06:37.012Z,33.00
2018-04-19T18:09:04.509Z,35.30
2018-04-19T18:11:31.953Z,35.80
2018-04-19T18:13:59.397Z,36.50
2018-04-19T18:16:26.862Z,36.90
2018-04-19T18:18:54.529Z,37.60
2018-04-19T18:21:21.970Z,38.40
2018-04-19T18:23:49.473Z,39.50
2018-04-19T18:26:16.910Z,39.70
2018-04-19T18:28:44.368Z,39.80
2018-04-19T18:31:11.849Z,40.00
2018-04-19T18:33:40.055Z,41.20
2018-04-19T18:36:07.496Z,41.20
2018-04-19T18:38:34.988Z,41.70
2018-04-19T18:41:02.454Z,41.70
2018-04-19T18:43:29.893Z,41.70
2018-04-19T18:45:57.376Z,42.00
2018-04-19T18:48:24.840Z,42.30
2018-04-19T18:50:52.282Z,42.40
2018-04-19T18:53:19.760Z,42.80
2018-04-19T18:55:47.978Z,43.40
2018-04-19T18:58:15.427Z,43.40
2018-04-19T19:00:42.897Z,43.50
2018-04-19T19:03:10.342Z,43.60
2018-04-19T19:05:37.784Z,44.00
2018-04-19T19:08:05.272Z,44.70
2018-04-19T19:10:32.729Z,44.50
2018-04-19T19:13:00.187Z,44.20
2018-04-19T19:18:57.946Z,43.80
2018-04-19T19:21:25.384Z,43.80
2018-04-19T19:23:52.874Z,43.70
2018-04-19T19:26:21.069Z,44.10
2018-04-19T19:28:48.515Z,44.10
2018-04-19T19:31:15.965Z,44.00
2018-04-19T19:33:43.449Z,44.00
2018-04-19T19:36:10.904Z,44.00
2018-04-19T19:38:38.369Z,43.70
2018-04-19T19:41:06.593Z,43.80
2018-04-19T19:43:34.045Z,43.80
2018-04-19T19:46:01.527Z,43.90
2018-04-19T19:48:28.968Z,43.70
2018-04-19T19:50:56.408Z,43.40
2018-04-19T19:53:23.897Z,43.40
2018-04-19T19:55:51.345Z,43.90
2018-04-19T19:58:18.777Z,44.10
2018-04-19T20:00:46.255Z,43.50
2018-04-19T20:03:13.688Z,43.00
2018-04-19T20:05:41.177Z,42.70
2018-04-19T20:08:08.688Z,42.40
2018-04-19T20:10:36.130Z,42.40
2018-04-19T20:13:04.337Z,42.20
2018-04-19T20:15:31.805Z,42.20
2018-04-19T20:17:59.238Z,42.10
2018-04-19T20:20:26.721Z,42.20
2018-04-19T20:22:54.176Z,42.50
2018-04-19T20:25:21.625Z,42.20
2018-04-19T20:27:49.102Z,41.30
2018-04-19T20:30:16.569Z,41.20
2018-04-19T20:32:44.006Z,41.30
2018-04-19T20:35:11.483Z,41.40
2018-04-19T20:37:38.932Z,40.70
2018-04-19T20:40:06.360Z,40.60
2018-04-19T20:42:33.851Z,40.60
2018-04-19T20:45:01.292Z,40.00
2018-04-19T20:47:28.750Z,39.90
2018-04-19T20:49:56.237Z,40.00
2018-04-19T20:52:24.449Z,39.30
2018-04-19T20:54:51.901Z,39.30
2018-04-19T20:57:19.369Z,40.10
2018-04-19T20:59:46.818Z,39.30
2018-04-19T21:02:14.255Z,39.20
2018-04-19T21:04:42.511Z,38.90
2018-04-19T21:07:10.718Z,39.10
2018-04-19T21:09:38.159Z,39.00
2018-04-19T21:12:05.620Z,39.10
2018-04-19T21:14:33.067Z,38.90
2018-04-19T21:17:00.534Z,38.60
2018-04-19T21:19:27.971Z,38.50
2018-04-19T21:21:55.416Z,38.50
2018-04-19T21:24:22.904Z,38.40
2018-04-19T21:26:50.330Z,38.50
2018-04-19T21:29:17.784Z,38.50
2018-04-19T21:31:46.028Z,38.20
2018-04-19T21:34:13.474Z,38.10
2018-04-19T21:36:40.913Z,37.90
2018-04-19T21:39:08.429Z,37.70
2018-04-19T21:41:35.877Z,37.70
2018-04-19T21:44:03.327Z,37.90
2018-04-19T21:46:31.562Z,38.00
2018-04-19T21:48:59.000Z,37.90
2018-04-19T21:51:26.558Z,38.00
2018-04-19T21:53:54.016Z,38.10
2018-04-19T21:56:21.470Z,37.90
2018-04-19T21:58:48.938Z,37.90
2018-04-19T22:01:17.190Z,38.00
2018-04-19T22:03:44.631Z,38.00
2018-04-19T22:06:12.088Z,38.00
2018-04-19T22:08:39.561Z,38.00
2018-04-19T22:11:07.773Z,38.50
2018-04-19T22:13:35.219Z,37.90
2018-04-19T22:16:02.698Z,38.00
2018-04-19T22:18:30.914Z,37.70
2018-04-19T22:20:58.352Z,37.70
2018-04-19T22:23:25.816Z,38.40
2018-04-19T22:25:53.264Z,37.90
2018-04-19T22:28:20.707Z,38.20
2018-04-19T22:30:48.933Z,38.20
2018-04-19T22:33:16.401Z,38.20
2018-04-19T22:35:43.840Z,38.30
2018-04-19T22:38:11.284Z,38.60
2018-04-19T22:40:38.764Z,38.50
2018-04-19T22:43:06.743Z,38.40
2018-04-19T22:45:34.193Z,38.30
2018-04-19T22:48:01.667Z,38.70
2018-04-19T22:50:29.119Z,39.30
2018-04-19T22:52:56.586Z,39.40
2018-04-19T22:55:24.828Z,39.10
2018-04-19T22:57:52.277Z,39.20
2018-04-19T23:00:19.708Z,38.90
2018-04-19T23:02:47.187Z,38.80
2018-04-19T23:05:14.636Z,39.10
2018-04-19T23:07:42.860Z,38.90
2018-04-19T23:10:11.078Z,39.30
2018-04-19T23:12:38.549Z,39.30
2018-04-19T23:15:06.013Z,38.90
2018-04-19T23:17:33.532Z,39.20
2018-04-19T23:20:00.945Z,39.20
2018-04-19T23:22:34.187Z,39.40
2018-04-19T23:25:01.639Z,38.80
2018-04-19T23:27:29.100Z,39.10
2018-04-19T23:29:56.555Z,39.30
2018-04-19T23:32:24.026Z,39.20
2018-04-19T23:34:51.493Z,38.70
2018-04-19T23:37:18.938Z,38.80
2018-04-19T23:39:46.409Z,38.90
2018-04-19T23:42:13.923Z,38.70
2018-04-19T23:44:41.390Z,39.00
2018-04-19T23:47:08.876Z,39.30
2018-04-19T23:49:36.321Z,38.60
2018-04-19T23:52:03.787Z,38.80
2018-04-19T23:54:31.240Z,38.60
2018-04-19T23:56:58.713Z,38.70
2018-04-19T23:59:26.153Z,38.60
